Jonesville, Louisiana
Current Conditions -  °F | °C
As of 4:55 PM on Friday 28 Nov 2014 (Local Time) from KHEZ Reporting Station
Clear Clear  
Wind Chill: 55°   Ceiling: Unl
Heat Index: 55°   Visibility: 10mi
Dew Point: 28°   Wind: 8mph
Humidity: 36%   Direction: 160°SSE
Pressure: 30.24"   Gusts: NA
Location:  31.63°N, 91.82°W
Report Text: KHEZ 282255Z AUTO 16007KT 10SM CLR 13/M02 A3024 RMK AO1
Loading
Personal Weather Stations






























Interactive Weather Map New forecast layout! Learn more

10-Day Weather Forecast

Advertisements
Track Severe Weather on mobile